createdAt,value
2023-02-17T00:06:59.979Z,37.30
2023-02-17T00:17:58.604Z,30.80
2023-02-17T00:29:08.009Z,35.50
2023-02-17T00:40:13.714Z,29.30
2023-02-17T00:51:24.508Z,29.00
2023-02-17T01:02:34.192Z,27.50
2023-02-17T01:13:53.934Z,31.30
2023-02-17T01:25:19.524Z,26.30
2023-02-17T01:36:44.495Z,24.90
2023-02-17T01:47:59.359Z,24.10
2023-02-17T01:58:54.800Z,22.50
2023-02-17T02:10:06.566Z,21.10
2023-02-17T02:21:43.370Z,23.90
2023-02-17T02:33:07.806Z,22.20
2023-02-17T02:44:32.416Z,20.90
2023-02-17T02:56:04.219Z,24.90
2023-02-17T03:07:30.778Z,23.90
2023-02-17T03:18:55.539Z,19.80
2023-02-17T03:30:20.237Z,21.50
2023-02-17T03:41:45.008Z,24.40
2023-02-17T03:53:09.721Z,21.80
2023-02-17T04:04:34.348Z,22.10
2023-02-17T04:15:58.988Z,22.60
2023-02-17T04:27:23.815Z,23.40
2023-02-17T04:38:38.920Z,19.00
2023-02-17T04:50:03.533Z,21.80
2023-02-17T05:01:18.424Z,25.80
2023-02-17T05:12:31.869Z,28.40
2023-02-17T05:23:16.668Z,25.20
2023-02-17T05:34:41.491Z,23.80
2023-02-17T05:45:54.789Z,28.90
2023-02-17T05:57:20.184Z,30.70
2023-02-17T06:08:37.843Z,30.20
2023-02-17T06:20:02.763Z,31.00
2023-02-17T06:31:27.844Z,26.50
2023-02-17T06:42:52.806Z,25.20
2023-02-17T06:54:18.645Z,31.90
2023-02-17T07:05:34.089Z,30.40
2023-02-17T07:16:59.050Z,28.90
2023-02-17T07:28:03.852Z,31.40
2023-02-17T07:39:08.569Z,40.90
2023-02-17T07:50:33.336Z,34.30
2023-02-17T08:01:28.398Z,36.30
2023-02-17T08:12:44.655Z,34.00
2023-02-17T08:24:09.306Z,36.80
2023-02-17T08:35:16.155Z,47.80
2023-02-17T08:46:37.890Z,37.70
2023-02-17T08:56:48.588Z,32.70
2023-02-17T09:07:18.980Z,34.30
2023-02-17T09:18:06.863Z,29.30
2023-02-17T09:28:44.942Z,24.80
2023-02-17T09:39:18.072Z,17.90
2023-02-17T09:50:14.123Z,16.90
2023-02-17T10:01:19.604Z,13.80
2023-02-17T10:12:39.798Z,13.50
2023-02-17T10:23:51.606Z,13.80
2023-02-17T10:34:50.999Z,12.30
2023-02-17T10:45:38.865Z,14.40
2023-02-17T10:56:46.362Z,12.70
2023-02-17T11:07:20.091Z,15.80
2023-02-17T11:17:30.829Z,13.80
2023-02-17T11:27:35.453Z,12.60
2023-02-17T11:38:31.788Z,12.60
2023-02-17T11:49:02.840Z,12.10
2023-02-17T12:00:13.825Z,11.00
2023-02-17T12:11:04.518Z,9.50
2023-02-17T12:22:24.887Z,8.10
2023-02-17T12:33:19.868Z,6.40
2023-02-17T12:54:46.037Z,4.80
2023-02-17T13:05:29.521Z,5.20
2023-02-17T13:16:27.877Z,5.70
2023-02-17T13:27:08.625Z,9.30
2023-02-17T13:37:45.510Z,7.70
2023-02-17T13:48:21.261Z,8.20
2023-02-17T13:59:29.486Z,6.70
2023-02-17T14:09:55.747Z,5.70
2023-02-17T14:20:20.681Z,9.20
2023-02-17T14:30:47.773Z,9.40
2023-02-17T14:41:37.128Z,7.40
2023-02-17T14:52:25.936Z,11.70
2023-02-17T15:02:55.888Z,7.80
2023-02-17T15:13:45.731Z,6.90
2023-02-17T15:24:17.397Z,5.40
2023-02-17T15:34:48.959Z,6.00
2023-02-17T15:45:40.098Z,7.30
2023-02-17T15:56:41.416Z,11.30
2023-02-17T16:06:58.550Z,7.90
2023-02-17T16:17:19.724Z,9.00
2023-02-17T16:27:34.682Z,7.80
2023-02-17T16:48:11.861Z,6.70
2023-02-17T16:59:07.195Z,8.80
2023-02-17T17:10:15.320Z,7.70
2023-02-17T17:21:41.657Z,8.80
2023-02-17T17:32:11.272Z,9.80
2023-02-17T17:42:30.130Z,11.10
2023-02-17T17:52:55.193Z,9.30
2023-02-17T18:03:22.935Z,9.00
2023-02-17T18:13:54.251Z,7.00
2023-02-17T18:24:22.319Z,7.10
2023-02-17T18:34:31.000Z,7.10
2023-02-17T18:44:48.071Z,7.00
2023-02-17T18:55:08.513Z,7.40
2023-02-17T19:06:06.242Z,7.70
2023-02-17T19:16:24.813Z,6.70
2023-02-17T19:26:43.627Z,6.10
2023-02-17T19:36:56.974Z,7.10
2023-02-17T19:47:07.367Z,8.10
2023-02-17T19:57:18.980Z,8.40
2023-02-17T20:07:37.790Z,6.80
2023-02-17T20:17:43.838Z,6.20
2023-02-17T20:28:04.679Z,5.90
2023-02-17T20:38:47.470Z,7.60
2023-02-17T20:49:04.020Z,6.40
2023-02-17T20:59:17.309Z,6.30
2023-02-17T21:09:26.403Z,5.60
2023-02-17T21:19:41.806Z,5.50
2023-02-17T21:29:56.837Z,7.10
2023-02-17T21:40:01.504Z,5.10
2023-02-17T21:50:27.290Z,4.30
2023-02-17T22:00:37.632Z,5.10
2023-02-17T22:10:59.172Z,5.10
2023-02-17T22:21:35.655Z,4.30
2023-02-17T22:32:50.333Z,4.60
2023-02-17T22:42:56.853Z,5.30
2023-02-17T22:53:35.005Z,3.90
2023-02-17T23:04:02.589Z,3.50
2023-02-17T23:14:33.758Z,3.90
2023-02-17T23:24:50.944Z,3.50
2023-02-17T23:35:38.148Z,3.60
2023-02-17T23:45:42.128Z,4.10
2023-02-17T23:56:08.284Z,3.00
